Pagina principale
METAR-TAF:

METAR-TAF

Aeroporti :

Donau

Neuburg, Germania

latitudine: 48-43N, longitudine: 011-13E, altezza: 380 m

Osservazione

Il bollettino è stato emesso 1 ora e 8 minuti fa, alle 00:20 UTC
Vento 4 kt da nord/nord-est
Temperature -3°C
Umidità 63%
Pressione 1038 hPa
Visibilità 10 km o più
Nuvoloso ad un'altezza di 35000 ft

METAR: ETSN 240020Z 02004KT 9999 BKN350 M03/M09 Q1038 BLU+

Ora: 02:28 (01:28 UTC)


TAF: mancante

Osservazioni e previsioni meteorologiche di più di 4000 aeroporti (messaggi METAR e TAF).

Le stazioni disponibili sono rappresentate dai dischi gialli e rossi sulla carta.

Puntare il mouse per vedere il nome della stazione.

Clicca sopra per visualizzare le osservazioni e previsioni meteorologiche.

Per cambiare la mappa : fare clic sui pulsanti verdi con una croce nera per ingrandire, il pulsante verde con un trattino per diminuire, o sulla freccia verde per le mappe adiacenti.


METAR-TAF: